Time;durP1;ratioP1;P1;durP2;ratioP2;P2;SDS_P1;SDS_P2;PMS_P1;PMS_P2;Temp;Humidity;BMP_temperature;BMP_pressure;BME280_temperature;BME280_humidity;BME280_pressure;Samples;Min_cycle;Max_cycle;Signal;HPM_P1;HPM_P2
2022/08/06 00:00:35;;;;;;;3.25;1.77;;;13.40;99.90;;;;;;5070632;28;20630;-49
2022/08/06 00:03:00;;;;;;;5.28;1.80;;;13.40;99.90;;;;;;5070881;28;20123;-50
2022/08/06 00:05:26;;;;;;;4.47;2.45;;;13.40;99.90;;;;;;5070954;28;20093;-50
2022/08/06 00:07:52;;;;;;;2.28;1.90;;;13.30;99.90;;;;;;5070930;28;20446;-52
2022/08/06 00:10:18;;;;;;;4.13;2.25;;;13.30;99.90;;;;;;5070798;28;20341;-48
2022/08/06 00:12:46;;;;;;;4.82;2.30;;;13.30;99.90;;;;;;5072018;28;20044;-50
2022/08/06 00:15:12;;;;;;;4.63;1.88;;;13.30;99.90;;;;;;5090411;28;20040;-47
2022/08/06 00:17:38;;;;;;;6.35;2.10;;;13.30;99.90;;;;;;5091146;28;20040;-51
2022/08/06 00:20:05;;;;;;;5.43;2.42;;;13.30;99.90;;;;;;5088943;28;20039;-52
2022/08/06 00:22:31;;;;;;;3.42;2.78;;;13.30;99.90;;;;;;5071682;28;20037;-49
2022/08/06 00:24:57;;;;;;;5.70;2.10;;;13.40;99.90;;;;;;5080474;28;20037;-50
2022/08/06 00:27:23;;;;;;;5.78;2.03;;;13.40;99.90;;;;;;5070461;28;20040;-51
2022/08/06 00:29:49;;;;;;;4.35;1.90;;;13.40;99.90;;;;;;5085970;28;20490;-49
2022/08/06 00:32:15;;;;;;;6.85;2.45;;;13.40;99.90;;;;;;5090849;28;20028;-49
2022/08/06 00:34:41;;;;;;;4.15;1.98;;;13.30;99.90;;;;;;5090659;28;20035;-48
2022/08/06 00:37:07;;;;;;;3.10;1.77;;;13.30;99.90;;;;;;5090766;28;20172;-48
2022/08/06 00:39:32;;;;;;;2.45;1.67;;;13.20;99.90;;;;;;5090693;28;20036;-48
2022/08/06 00:41:58;;;;;;;4.07;1.65;;;13.20;99.90;;;;;;5075031;28;20398;-48
2022/08/06 00:44:24;;;;;;;2.88;1.80;;;13.20;99.90;;;;;;5069850;28;20044;-48
2022/08/06 00:46:50;;;;;;;3.70;1.52;;;13.10;99.90;;;;;;5069951;28;20032;-49
2022/08/06 00:49:15;;;;;;;5.47;1.35;;;13.10;99.90;;;;;;5070294;28;20549;-49
2022/08/06 00:51:41;;;;;;;4.45;1.10;;;13.10;99.90;;;;;;5070197;28;20097;-47
2022/08/06 00:54:06;;;;;;;2.78;1.05;;;13.00;99.90;;;;;;5070013;28;20520;-48
2022/08/06 00:56:32;;;;;;;3.75;1.55;;;13.00;99.90;;;;;;5069897;28;20497;-49
2022/08/06 00:58:58;;;;;;;3.30;1.15;;;13.00;99.90;;;;;;5070151;28;20141;-48
2022/08/06 01:01:23;;;;;;;6.60;2.00;;;12.90;99.90;;;;;;5070372;28;20039;-47
2022/08/06 01:03:49;;;;;;;5.57;2.37;;;12.90;99.90;;;;;;5081137;28;20386;-50
2022/08/06 01:06:14;;;;;;;5.03;1.90;;;12.90;99.90;;;;;;5088265;28;20286;-46
2022/08/06 01:08:40;;;;;;;3.58;1.45;;;12.90;99.90;;;;;;5078304;28;20040;-49
2022/08/06 01:11:06;;;;;;;2.00;1.50;;;12.90;99.90;;;;;;5084748;28;20035;-48
2022/08/06 01:13:31;;;;;;;2.85;1.30;;;12.90;99.90;;;;;;5082603;28;20037;-47
2022/08/06 01:16:21;;;;;;;4.32;1.45;;;12.90;99.90;;;;;;5076109;28;20097;-49
2022/08/06 01:19:10;;;;;;;3.35;1.27;;;12.90;99.90;;;;;;5072955;28;20040;-47
2022/08/06 01:22:11;;;;;;;3.78;1.48;;;12.90;99.90;;;;;;5082845;28;20109;-46
2022/08/06 01:25:09;;;;;;;7.15;1.50;;;12.80;99.90;;;;;;5084297;28;20572;-46
2022/08/06 01:28:04;;;;;;;8.02;1.80;;;12.80;99.90;;;;;;5071636;28;20123;-48
2022/08/06 01:30:35;;;;;;;6.80;1.33;;;12.90;99.90;;;;;;5069532;28;20072;-49
2022/08/06 01:33:06;;;;;;;4.50;1.27;;;12.90;99.90;;;;;;5084211;28;20069;-47
2022/08/06 01:35:37;;;;;;;2.92;1.10;;;12.90;99.90;;;;;;5087104;28;20089;-49
2022/08/06 01:38:12;;;;;;;4.07;1.20;;;12.90;99.90;;;;;;5092041;28;20036;-49
2022/08/06 01:40:40;;;;;;;3.35;1.45;;;12.90;99.90;;;;;;5077520;28;20032;-49
2022/08/06 01:43:09;;;;;;;4.35;1.58;;;12.90;99.90;;;;;;5074690;28;20441;-50
2022/08/06 01:45:37;;;;;;;2.30;0.82;;;12.90;99.90;;;;;;5084453;28;20076;-48
2022/08/06 01:48:06;;;;;;;5.82;1.48;;;12.80;99.90;;;;;;5074724;28;20119;-50
2022/08/06 01:50:36;;;;;;;3.13;1.67;;;12.80;99.90;;;;;;5088039;28;20044;-49
2022/08/06 01:53:05;;;;;;;1.65;1.27;;;12.80;99.90;;;;;;5090499;28;20139;-47
2022/08/06 01:55:36;;;;;;;2.65;1.40;;;12.70;99.90;;;;;;5079930;28;20044;-47
2022/08/06 01:58:04;;;;;;;4.55;1.60;;;12.80;99.90;;;;;;5091066;28;20162;-49
2022/08/06 02:00:31;;;;;;;2.95;1.67;;;12.70;99.90;;;;;;5074507;28;20033;-49
2022/08/06 02:03:01;;;;;;;5.00;1.40;;;12.80;99.90;;;;;;5084797;28;20036;-50
2022/08/06 02:05:27;;;;;;;3.00;1.52;;;12.70;99.90;;;;;;5081357;28;20486;-49
2022/08/06 02:07:56;;;;;;;4.20;1.35;;;12.70;99.90;;;;;;5088149;28;20063;-48
2022/08/06 02:10:22;;;;;;;4.63;1.50;;;12.70;99.90;;;;;;5079906;28;20548;-47
2022/08/06 02:12:49;;;;;;;6.85;1.35;;;12.80;99.90;;;;;;5085852;28;20040;-48
2022/08/06 02:15:17;;;;;;;;;;;12.70;99.90;;;;;;5082162;28;20044;-48
2022/08/06 02:17:49;;;;;;;4.78;1.67;;;12.80;99.90;;;;;;5091645;28;19959;-48
2022/08/06 02:20:18;;;;;;;2.90;1.77;;;12.70;99.90;;;;;;5080282;28;20040;-49
2022/08/06 02:22:45;;;;;;;2.17;1.60;;;12.70;99.90;;;;;;5093045;28;20032;-47
2022/08/06 02:25:13;;;;;;;3.67;1.58;;;12.70;99.90;;;;;;5080835;28;20082;-50
2022/08/06 02:27:45;;;;;;;3.25;1.25;;;12.70;99.90;;;;;;5073092;28;20045;-47
2022/08/06 02:30:12;;;;;;;5.30;1.58;;;12.60;99.90;;;;;;5072861;28;20086;-48
2022/08/06 02:32:38;;;;;;;3.58;1.73;;;12.60;99.90;;;;;;5072224;28;20090;-48
2022/08/06 02:35:04;;;;;;;6.05;2.15;;;12.60;99.90;;;;;;5072630;28;20052;-49
2022/08/06 02:37:35;;;;;;;3.60;1.95;;;12.60;99.90;;;;;;5086101;28;20348;-49
2022/08/06 02:40:08;;;;;;;3.83;1.70;;;12.60;99.90;;;;;;5093094;28;20040;-47
2022/08/06 02:42:41;;;;;;;4.50;1.85;;;12.60;99.90;;;;;;5093125;28;20044;-49
2022/08/06 02:45:29;;;;;;;4.15;2.10;;;12.60;99.90;;;;;;5091983;28;20067;-48
2022/08/06 02:48:08;;;;;;;7.88;2.28;;;12.60;99.90;;;;;;5091816;28;20048;-47
2022/08/06 02:50:40;;;;;;;4.68;2.17;;;12.50;99.90;;;;;;5091028;28;20044;-49
2022/08/06 02:53:28;;;;;;;5.90;2.70;;;12.50;99.90;;;;;;5078681;28;20036;-48
2022/08/06 02:56:03;;;;;;;4.43;1.85;;;12.50;99.90;;;;;;5083085;28;20397;-49
2022/08/06 02:58:37;;;;;;;2.10;1.92;;;12.50;99.90;;;;;;5086290;28;20066;-48
2022/08/06 03:01:07;;;;;;;3.72;2.42;;;12.50;99.90;;;;;;5074647;28;20565;-46
2022/08/06 03:03:34;;;;;;;3.25;2.63;;;12.50;99.90;;;;;;5089651;28;20032;-49
2022/08/06 03:06:03;;;;;;;2.45;2.08;;;12.50;99.90;;;;;;5090904;28;20504;-49
2022/08/06 03:08:30;;;;;;;3.35;1.95;;;12.50;99.90;;;;;;5084330;28;20062;-46
2022/08/06 03:10:57;;;;;;;5.50;2.47;;;12.50;99.90;;;;;;5083708;28;20619;-47
2022/08/06 03:13:23;;;;;;;4.10;2.05;;;12.40;99.90;;;;;;5082050;28;20068;-49
2022/08/06 03:15:50;;;;;;;;;;;12.50;99.90;;;;;;5088742;28;20036;-49
2022/08/06 03:18:17;;;;;;;3.97;2.08;;;12.40;99.90;;;;;;5087085;28;20179;-49
2022/08/06 03:20:44;;;;;;;3.63;1.85;;;12.40;99.90;;;;;;5079568;28;20097;-51
2022/08/06 03:23:11;;;;;;;5.25;1.98;;;12.40;99.90;;;;;;5081084;28;20039;-48
2022/08/06 03:25:39;;;;;;;4.85;1.83;;;12.40;99.90;;;;;;5092291;28;20436;-49
2022/08/06 03:28:06;;;;;;;1.92;1.70;;;12.30;99.90;;;;;;5082879;28;20444;-50
2022/08/06 03:30:32;;;;;;;3.58;1.92;;;12.30;99.90;;;;;;5072921;28;20041;-50
2022/08/06 03:32:59;;;;;;;;;;;12.30;99.90;;;;;;5053286;28;20046;-49
2022/08/06 03:35:25;;;;;;;5.80;2.47;;;12.20;99.90;;;;;;5087884;28;20305;-48
2022/08/06 03:37:53;;;;;;;2.70;1.40;;;12.10;99.90;;;;;;5075172;28;20183;-48
2022/08/06 03:40:19;;;;;;;3.38;1.50;;;12.10;99.90;;;;;;5090798;28;20409;-50
2022/08/06 03:42:45;;;;;;;1.08;0.70;;;12.00;99.90;;;;;;5074230;28;20032;-50
2022/08/06 03:45:11;;;;;;;2.78;1.58;;;12.00;99.90;;;;;;5082979;28;20055;-50
2022/08/06 03:47:44;;;;;;;1.08;0.63;;;11.90;99.90;;;;;;5070919;28;20079;-50
2022/08/06 03:50:16;;;;;;;1.58;1.30;;;11.80;99.90;;;;;;5090961;28;20059;-50
2022/08/06 03:52:54;;;;;;;1.42;0.80;;;11.70;99.90;;;;;;5089923;28;20047;-49
2022/08/06 03:55:26;;;;;;;0.55;0.40;;;11.50;99.90;;;;;;5072420;28;20500;-48
2022/08/06 03:57:56;;;;;;;1.10;0.40;;;11.40;99.90;;;;;;5072774;28;20051;-48
2022/08/06 04:00:26;;;;;;;1.33;0.60;;;11.40;99.90;;;;;;5091373;28;20103;-48
2022/08/06 04:02:54;;;;;;;0.82;0.70;;;11.30;99.90;;;;;;5089666;28;20032;-46
2022/08/06 04:05:23;;;;;;;0.98;0.73;;;11.30;99.90;;;;;;5085883;28;20047;-49
2022/08/06 04:07:55;;;;;;;1.77;1.55;;;11.20;99.90;;;;;;5090217;28;20516;-49
2022/08/06 04:10:23;;;;;;;2.33;0.80;;;11.20;99.90;;;;;;5070569;28;20051;-50
2022/08/06 04:12:49;;;;;;;0.70;0.70;;;11.10;99.90;;;;;;5078632;28;20070;-48
2022/08/06 04:15:15;;;;;;;1.60;0.52;;;11.00;99.90;;;;;;5089044;28;20036;-50
2022/08/06 04:17:44;;;;;;;1.20;0.40;;;11.00;99.90;;;;;;5089155;28;20111;-48
2022/08/06 04:20:18;;;;;;;1.48;1.38;;;10.90;99.90;;;;;;5077778;28;20037;-48
2022/08/06 04:22:43;;;;;;;4.80;0.98;;;10.80;99.90;;;;;;5090660;28;20408;-47
2022/08/06 04:25:10;;;;;;;0.98;0.63;;;10.80;99.90;;;;;;5080222;28;20119;-48
2022/08/06 04:27:38;;;;;;;1.40;0.82;;;10.80;99.90;;;;;;5070908;28;20135;-48
2022/08/06 04:30:05;;;;;;;0.52;0.50;;;10.80;99.90;;;;;;5070697;28;20123;-46
2022/08/06 04:32:32;;;;;;;4.38;0.50;;;10.80;99.90;;;;;;5070496;28;20037;-49
2022/08/06 04:35:02;;;;;;;1.40;0.60;;;10.80;99.90;;;;;;5070157;28;20036;-46
2022/08/06 04:37:28;;;;;;;20.00;2.17;;;10.80;99.90;;;;;;5080999;28;20118;-48
2022/08/06 04:39:54;;;;;;;1.73;1.63;;;10.80;99.90;;;;;;5091186;28;20461;-48
2022/08/06 04:42:20;;;;;;;10.05;1.48;;;10.80;99.90;;;;;;5090713;28;20527;-46
2022/08/06 04:44:46;;;;;;;1.13;1.02;;;10.80;99.90;;;;;;5090405;28;20077;-48
2022/08/06 04:47:12;;;;;;;0.80;0.80;;;10.80;99.90;;;;;;5090998;28;20435;-48
2022/08/06 04:49:38;;;;;;;1.40;0.93;;;10.80;99.90;;;;;;5090992;28;20077;-52
2022/08/06 04:52:04;;;;;;;1.55;1.05;;;10.90;99.90;;;;;;5079413;28;20054;-50
2022/08/06 04:54:30;;;;;;;2.30;1.35;;;10.90;99.90;;;;;;5083379;28;20056;-48
2022/08/06 04:56:55;;;;;;;2.80;2.20;;;10.90;99.90;;;;;;5073848;28;20048;-48
2022/08/06 04:59:21;;;;;;;1.73;1.63;;;10.90;99.90;;;;;;5086742;28;20036;-49
2022/08/06 05:01:46;;;;;;;1.60;1.50;;;10.90;99.90;;;;;;5080651;28;20127;-48
2022/08/06 05:04:12;;;;;;;1.80;1.40;;;10.90;99.90;;;;;;5077699;28;20044;-49
2022/08/06 05:06:49;;;;;;;1.85;1.75;;;11.00;99.90;;;;;;5089926;28;20386;-47
2022/08/06 05:09:24;;;;;;;2.00;1.67;;;11.00;99.90;;;;;;5080460;28;21165;-50
2022/08/06 05:12:05;;;;;;;1.92;1.83;;;11.10;99.90;;;;;;5076611;28;20032;-48
2022/08/06 05:14:38;;;;;;;2.80;2.30;;;11.10;99.90;;;;;;5077842;28;20489;-49
2022/08/06 05:17:06;;;;;;;4.65;3.08;;;11.20;99.90;;;;;;5085864;28;20180;-49
2022/08/06 05:19:38;;;;;;;2.45;2.30;;;11.40;99.90;;;;;;5072041;28;20764;-48
2022/08/06 05:22:06;;;;;;;9.02;3.63;;;11.50;99.90;;;;;;5078340;28;20048;-48
2022/08/06 05:24:32;;;;;;;2.40;2.25;;;11.60;99.90;;;;;;5077091;28;20516;-48
2022/08/06 05:26:58;;;;;;;4.70;2.03;;;11.80;99.90;;;;;;5069898;28;20033;-48
2022/08/06 05:29:23;;;;;;;2.90;2.70;;;11.80;99.90;;;;;;5070792;28;20490;-51
2022/08/06 05:31:49;;;;;;;2.90;2.70;;;12.00;99.90;;;;;;5070244;28;20048;-49
2022/08/06 05:34:15;;;;;;;3.08;2.45;;;12.10;99.90;;;;;;5073288;28;20048;-53
2022/08/06 05:36:40;;;;;;;4.40;3.05;;;12.20;99.90;;;;;;5069900;28;20036;-51
2022/08/06 05:39:07;;;;;;;3.92;3.53;;;12.30;99.90;;;;;;5071516;28;20114;-54
2022/08/06 05:41:35;;;;;;;6.10;3.85;;;12.50;99.90;;;;;;5079705;28;20409;-52
2022/08/06 05:44:02;;;;;;;4.00;3.67;;;12.60;99.90;;;;;;5079962;28;20064;-50
2022/08/06 05:46:36;;;;;;;5.57;4.53;;;12.70;99.90;;;;;;5069034;28;20036;-49
2022/08/06 05:49:06;;;;;;;8.63;5.78;;;12.80;99.90;;;;;;5086151;28;20476;-52
2022/08/06 05:52:18;;;;;;;8.20;6.00;;;13.00;99.90;;;;;;5073936;28;20036;-51
2022/08/06 05:54:48;;;;;;;6.43;5.78;;;13.10;99.90;;;;;;4986437;28;20057;-49
2022/08/06 05:57:24;;;;;;;7.15;6.00;;;13.20;99.90;;;;;;4987499;28;20053;-52
2022/08/06 05:59:58;;;;;;;7.93;6.40;;;13.30;99.90;;;;;;4972088;28;20548;-49
2022/08/06 06:02:26;;;;;;;6.78;5.63;;;13.40;99.90;;;;;;4974226;28;20038;-54
2022/08/06 06:04:53;;;;;;;8.05;5.30;;;13.60;99.90;;;;;;4979415;28;20125;-51
2022/08/06 06:07:19;;;;;;;7.55;4.78;;;13.60;99.90;;;;;;4978871;28;20522;-52
2022/08/06 06:09:45;;;;;;;12.52;6.72;;;13.70;99.90;;;;;;4973174;28;20034;-53
2022/08/06 06:12:11;;;;;;;5.95;4.35;;;13.80;99.90;;;;;;4969235;28;20050;-52
2022/08/06 06:14:41;;;;;;;4.53;4.13;;;14.00;99.90;;;;;;4981053;28;20045;-51
2022/08/06 06:17:40;;;;;;;8.00;3.58;;;14.10;99.90;;;;;;4951856;28;20051;-51
2022/08/06 06:20:53;;;;;;;6.38;3.80;;;14.30;99.90;;;;;;4980316;28;20559;-53
2022/08/06 06:23:44;;;;;;;6.35;3.97;;;14.40;99.90;;;;;;4940058;28;20098;-48
2022/08/06 06:26:27;;;;;;;3.97;3.47;;;14.60;99.90;;;;;;4990993;28;20523;-54
2022/08/06 06:29:28;;;;;;;4.47;2.15;;;14.80;99.90;;;;;;4991642;28;20051;-53
2022/08/06 06:32:06;;;;;;;5.10;2.75;;;14.90;99.90;;;;;;5040112;28;20563;-54
2022/08/06 06:35:01;;;;;;;5.43;2.17;;;15.10;99.90;;;;;;5078898;28;20036;-52
2022/08/06 06:37:50;;;;;;;5.00;1.77;;;15.30;99.90;;;;;;5083771;28;20544;-53
2022/08/06 06:40:43;;;;;;;3.88;1.88;;;15.50;99.90;;;;;;5078060;28;20247;-49
2022/08/06 06:43:16;;;;;;;3.40;1.30;;;15.60;99.90;;;;;;5088122;28;20100;-54
2022/08/06 06:46:02;;;;;;;1.23;1.00;;;15.80;99.90;;;;;;5091846;28;20051;-51
2022/08/06 06:48:54;;;;;;;4.53;1.30;;;16.00;99.90;;;;;;5078633;28;20032;-52
2022/08/06 06:51:27;;;;;;;4.63;0.98;;;16.10;99.90;;;;;;5092517;28;20044;-52
2022/08/06 06:53:54;;;;;;;1.77;0.50;;;16.10;99.90;;;;;;5092303;28;20089;-55
2022/08/06 06:56:23;;;;;;;6.13;1.20;;;16.20;99.90;;;;;;5090723;28;20040;-50
2022/08/06 06:58:58;;;;;;;4.55;0.60;;;16.30;99.90;;;;;;5092278;28;20047;-53
2022/08/06 07:01:24;;;;;;;2.70;0.60;;;16.40;99.90;;;;;;5078568;28;20558;-55
2022/08/06 07:03:50;;;;;;;1.88;0.40;;;16.50;99.90;;;;;;5072103;28;20078;-55
2022/08/06 07:06:17;;;;;;;3.95;0.70;;;16.50;99.90;;;;;;5072785;28;20068;-54
2022/08/06 07:08:46;;;;;;;1.48;0.40;;;16.60;99.90;;;;;;5088102;28;20040;-50
2022/08/06 07:11:20;;;;;;;1.08;0.50;;;16.70;99.90;;;;;;5089538;28;20036;-54
2022/08/06 07:13:48;;;;;;;1.88;0.30;;;16.70;99.90;;;;;;5071381;28;20044;-55
2022/08/06 07:16:17;;;;;;;4.18;0.52;;;16.70;99.90;;;;;;5071876;28;20519;-54
2022/08/06 07:18:45;;;;;;;1.38;0.40;;;16.80;99.90;;;;;;5072053;28;20040;-51
2022/08/06 07:21:14;;;;;;;2.75;0.57;;;16.90;99.90;;;;;;5071770;28;20043;-52
2022/08/06 07:23:39;;;;;;;0.82;0.10;;;16.90;99.90;;;;;;5077025;28;20032;-55
2022/08/06 07:26:07;;;;;;;0.55;0.20;;;17.00;99.90;;;;;;5091736;28;20050;-54
2022/08/06 07:28:33;;;;;;;2.22;0.17;;;17.10;99.90;;;;;;5092036;28;20473;-54
2022/08/06 07:31:03;;;;;;;2.10;0.43;;;17.20;99.90;;;;;;5091950;28;20044;-55
2022/08/06 07:33:29;;;;;;;1.80;0.35;;;17.30;99.90;;;;;;5091475;28;20047;-52
2022/08/06 07:35:56;;;;;;;1.13;0.20;;;17.40;99.90;;;;;;5091482;28;20039;-54
2022/08/06 07:38:25;;;;;;;3.85;0.30;;;17.50;99.90;;;;;;5091662;28;20040;-54
2022/08/06 07:40:54;;;;;;;1.38;0.15;;;17.60;99.90;;;;;;5091175;28;20507;-52
2022/08/06 07:43:48;;;;;;;0.47;0.10;;;17.70;99.90;;;;;;5091500;28;20036;-53
2022/08/06 07:46:19;;;;;;;3.70;0.50;;;17.80;99.90;;;;;;5090210;28;20512;-53
2022/08/06 07:48:53;;;;;;;2.08;0.17;;;17.80;99.90;;;;;;5083031;28;20389;-53
2022/08/06 07:51:23;;;;;;;1.77;0.10;;;17.90;99.90;;;;;;5073021;28;20031;-52
2022/08/06 07:53:50;;;;;;;0.98;0.40;;;18.00;99.90;;;;;;5077440;28;20044;-55
2022/08/06 07:56:17;;;;;;;1.88;0.10;;;18.10;99.90;;;;;;5077809;28;20041;-53
2022/08/06 07:58:44;;;;;;;2.92;0.10;;;18.20;99.70;;;;;;5072151;28;20094;-53
2022/08/06 08:01:10;;;;;;;2.40;0.10;;;18.20;99.20;;;;;;5085017;28;20466;-53
2022/08/06 08:06:41;;;;;;;2.47;0.25;;;18.40;99.10;;;;;;5028934;28;20168;-54
2022/08/06 08:09:08;;;;;;;;;;;18.40;99.20;;;;;;5010964;28;20045;-55
2022/08/06 08:11:40;;;;;;;;;;;18.50;98.80;;;;;;5029238;28;20327;-53
2022/08/06 08:14:08;;;;;;;1.85;0.10;;;18.60;99.00;;;;;;5027345;28;19917;-55
2022/08/06 08:16:33;;;;;;;4.70;0.55;;;18.70;99.30;;;;;;5028322;28;20075;-56
2022/08/06 08:18:59;;;;;;;1.25;0.15;;;18.80;98.70;;;;;;5026547;28;20081;-56
2022/08/06 08:21:26;;;;;;;2.58;0.10;;;19.00;98.90;;;;;;5028367;28;20041;-52
2022/08/06 08:23:52;;;;;;;4.13;0.25;;;19.10;98.50;;;;;;5025027;28;20057;-55
2022/08/06 08:26:17;;;;;;;6.38;0.20;;;19.30;98.40;;;;;;5008547;28;20532;-52
2022/08/06 08:28:43;;;;;;;2.78;0.20;;;19.40;98.00;;;;;;5013371;28;20100;-56
2022/08/06 08:31:11;;;;;;;3.88;0.10;;;19.50;98.00;;;;;;5009261;28;20152;-57
2022/08/06 08:33:36;;;;;;;0.47;0.15;;;19.70;97.90;;;;;;5020598;28;20631;-57
2022/08/06 08:36:02;;;;;;;12.40;1.13;;;19.80;97.70;;;;;;5026177;28;20120;-55
2022/08/06 08:38:32;;;;;;;;;;;19.90;97.40;;;;;;5067860;28;20131;-55
2022/08/06 08:41:06;;;;;;;19.15;3.63;;;19.90;96.50;;;;;;5071306;28;19920;-57
2022/08/06 08:43:44;;;;;;;4.47;0.20;;;19.80;96.40;;;;;;5069788;28;20051;-56
2022/08/06 08:46:11;;;;;;;1.05;0.25;;;19.70;96.20;;;;;;5085342;28;20047;-57
2022/08/06 08:48:37;;;;;;;6.88;0.73;;;19.70;96.70;;;;;;5072766;28;20048;-56
2022/08/06 08:51:04;;;;;;;17.25;1.58;;;19.70;96.60;;;;;;5071392;28;20040;-53
2022/08/06 08:53:53;;;;;;;40.83;5.03;;;19.80;96.30;;;;;;5070973;28;20501;-56
2022/08/06 08:56:19;;;;;;;5.30;0.85;;;20.00;96.40;;;;;;5082203;28;20040;-54
2022/08/06 08:58:45;;;;;;;4.65;0.55;;;20.10;95.70;;;;;;5090216;28;20044;-53
2022/08/06 09:01:12;;;;;;;1.35;0.20;;;20.10;95.90;;;;;;5087111;28;20090;-55
2022/08/06 09:03:39;;;;;;;4.05;0.60;;;20.20;96.00;;;;;;5069672;28;20510;-55
2022/08/06 09:06:06;;;;;;;1.35;0.10;;;20.30;95.80;;;;;;5074979;28;20085;-53
2022/08/06 09:08:32;;;;;;;2.20;0.10;;;20.40;95.50;;;;;;5089976;28;20047;-54
2022/08/06 09:10:59;;;;;;;2.88;0.30;;;20.40;95.40;;;;;;5090300;28;20039;-57
2022/08/06 09:13:26;;;;;;;7.43;0.50;;;20.40;95.20;;;;;;5069987;28;20044;-55
2022/08/06 09:15:52;;;;;;;1.65;0.10;;;20.30;94.70;;;;;;5071941;28;20055;-54
2022/08/06 09:18:19;;;;;;;;;;;20.30;94.80;;;;;;5090448;28;20043;-52
2022/08/06 09:20:44;;;;;;;0.30;0.00;;;20.40;94.00;;;;;;5090006;28;19916;-56
2022/08/06 09:23:12;;;;;;;2.22;0.30;;;20.50;94.80;;;;;;5088180;28;20036;-53
2022/08/06 09:25:43;;;;;;;0.52;0.10;;;20.60;93.90;;;;;;5088275;28;20066;-56
2022/08/06 09:28:11;;;;;;;4.90;0.43;;;20.70;93.20;;;;;;5078213;28;20037;-54
2022/08/06 09:30:38;;;;;;;3.17;0.20;;;20.80;93.60;;;;;;5069933;28;20048;-56
2022/08/06 09:33:10;;;;;;;1.15;0.25;;;21.00;94.10;;;;;;5070614;28;20116;-54
2022/08/06 09:35:36;;;;;;;1.23;0.20;;;21.10;92.80;;;;;;5069219;28;20403;-55
2022/08/06 09:38:08;;;;;;;;;;;21.20;93.00;;;;;;5070400;28;20087;-56
2022/08/06 09:40:34;;;;;;;3.40;0.05;;;21.30;91.70;;;;;;5069605;28;19923;-57
2022/08/06 09:43:00;;;;;;;;;;;21.20;92.10;;;;;;5071571;28;20040;-55
2022/08/06 09:45:26;;;;;;;1.60;0.10;;;21.10;91.30;;;;;;5052102;28;19916;-55
2022/08/06 09:48:05;;;;;;;1.75;0.30;;;21.10;92.00;;;;;;5069718;28;20094;-56
2022/08/06 09:50:40;;;;;;;0.65;0.10;;;21.00;91.40;;;;;;5090044;28;20048;-55
2022/08/06 09:53:06;;;;;;;1.00;0.38;;;21.00;91.40;;;;;;5089191;28;20082;-54
2022/08/06 09:55:33;;;;;;;3.33;0.20;;;20.90;91.80;;;;;;5088630;28;20047;-56
2022/08/06 09:57:59;;;;;;;1.70;0.32;;;20.90;92.00;;;;;;5073762;28;20047;-54
2022/08/06 10:00:28;;;;;;;;;;;20.90;91.60;;;;;;5093718;28;20397;-54
2022/08/06 10:02:59;;;;;;;2.83;0.30;;;21.10;91.20;;;;;;5093450;28;20006;-52
2022/08/06 10:05:26;;;;;;;2.20;0.10;;;21.20;91.40;;;;;;5092006;28;20032;-56
2022/08/06 10:08:02;;;;;;;7.95;0.50;;;21.30;91.10;;;;;;5093325;28;20044;-53
2022/08/06 10:10:43;;;;;;;1.80;0.10;;;21.50;90.40;;;;;;5078941;28;20417;-55
2022/08/06 10:13:18;;;;;;;1.45;0.20;;;21.60;90.30;;;;;;5072319;28;20053;-55
2022/08/06 10:15:45;;;;;;;0.90;0.10;;;21.70;89.70;;;;;;5073669;28;20088;-52
2022/08/06 10:18:32;;;;;;;2.05;0.20;;;21.80;90.10;;;;;;5054661;28;20524;-54
2022/08/06 10:21:04;;;;;;;0.65;0.10;;;21.80;86.70;;;;;;5072604;28;20036;-54
2022/08/06 10:23:32;;;;;;;3.50;0.30;;;21.90;87.20;;;;;;5071623;28;20036;-54
2022/08/06 10:25:58;;;;;;;1.23;0.35;;;22.00;87.40;;;;;;5073481;28;20064;-54
2022/08/06 10:28:25;;;;;;;;;;;22.10;87.50;;;;;;5073300;28;20075;-55
2022/08/06 10:30:52;;;;;;;1.60;0.20;;;22.20;87.10;;;;;;5083581;28;19970;-56
2022/08/06 10:33:19;;;;;;;1.27;0.30;;;22.30;88.70;;;;;;5093006;28;20042;-56
2022/08/06 10:35:47;;;;;;;1.08;0.20;;;22.40;86.80;;;;;;5091073;28;20112;-55
2022/08/06 10:38:16;;;;;;;2.92;0.43;;;22.50;86.00;;;;;;5092879;28;20051;-51
2022/08/06 10:40:44;;;;;;;1.05;0.20;;;22.60;85.70;;;;;;5092800;28;20040;-54
2022/08/06 10:43:11;;;;;;;1.58;0.30;;;22.60;85.60;;;;;;5092476;28;20445;-55
2022/08/06 10:45:38;;;;;;;1.67;0.57;;;22.60;84.20;;;;;;5092636;28;20032;-52
2022/08/06 10:48:04;;;;;;;1.38;0.28;;;22.70;84.00;;;;;;5076341;28;20058;-52
2022/08/06 10:50:31;;;;;;;1.90;0.30;;;22.70;84.50;;;;;;5092109;28;20100;-52
2022/08/06 10:52:59;;;;;;;0.75;0.30;;;22.70;84.70;;;;;;5091756;28;20442;-55
2022/08/06 10:55:26;;;;;;;5.18;0.73;;;22.60;84.80;;;;;;5092334;28;20115;-51
2022/08/06 10:57:52;;;;;;;5.53;0.30;;;22.50;84.40;;;;;;5083609;28;20040;-55
2022/08/06 11:00:17;;;;;;;;;;;22.40;83.90;;;;;;5072615;28;20140;-53
2022/08/06 11:03:12;;;;;;;1.60;0.30;;;22.20;81.10;;;;;;5082346;28;20002;-52
2022/08/06 11:05:40;;;;;;;1.73;0.30;;;22.20;83.10;;;;;;5092356;28;20393;-55
2022/08/06 11:08:21;;;;;;;1.90;0.30;;;22.20;82.50;;;;;;5090209;28;20569;-55
2022/08/06 11:10:58;;;;;;;1.17;0.60;;;22.30;82.00;;;;;;5073408;28;20505;-54
2022/08/06 11:13:23;;;;;;;2.05;0.40;;;22.40;80.80;;;;;;5082974;28;20233;-55
2022/08/06 11:15:49;;;;;;;;;;;22.50;81.70;;;;;;5072438;28;20497;-56
2022/08/06 11:18:17;;;;;;;2.15;0.40;;;22.50;81.50;;;;;;5089506;28;19927;-53
2022/08/06 11:20:44;;;;;;;2.75;0.30;;;22.50;81.70;;;;;;5091307;28;20117;-56
2022/08/06 11:23:13;;;;;;;4.05;0.73;;;22.60;80.10;;;;;;5073834;28;20058;-55
2022/08/06 11:25:41;;;;;;;2.72;0.70;;;22.70;78.90;;;;;;5090578;28;20055;-53
2022/08/06 11:28:15;;;;;;;1.40;0.38;;;22.90;80.40;;;;;;5091490;28;20458;-55
2022/08/06 11:30:46;;;;;;;5.32;1.08;;;23.10;76.70;;;;;;5092188;28;20040;-54
2022/08/06 11:33:14;;;;;;;4.60;0.80;;;23.30;77.30;;;;;;5091676;28;20083;-54
2022/08/06 11:35:43;;;;;;;2.88;0.57;;;23.40;77.30;;;;;;5084291;28;21117;-54
2022/08/06 11:38:14;;;;;;;0.85;0.35;;;23.30;75.90;;;;;;5079340;28;20055;-53
2022/08/06 11:41:01;;;;;;;2.55;0.50;;;23.10;75.20;;;;;;5075545;28;20036;-51
2022/08/06 11:43:52;;;;;;;2.15;0.60;;;22.80;74.90;;;;;;5071087;28;20036;-53
2022/08/06 11:46:31;;;;;;;1.88;0.70;;;22.60;75.10;;;;;;5050133;28;20072;-51
2022/08/06 11:48:59;;;;;;;2.35;0.60;;;22.40;76.10;;;;;;5071694;28;20740;-50
2022/08/06 11:51:46;;;;;;;3.30;0.50;;;22.30;76.20;;;;;;5091822;28;20046;-56
2022/08/06 11:54:15;;;;;;;2.08;0.57;;;22.20;75.50;;;;;;5091022;28;20075;-57
2022/08/06 11:57:01;;;;;;;3.33;0.52;;;22.10;75.60;;;;;;5062914;28;20044;-55
2022/08/06 11:59:29;;;;;;;5.50;0.70;;;22.00;75.40;;;;;;5070190;28;20101;-51
2022/08/06 12:01:55;;;;;;;1.13;0.52;;;21.90;77.20;;;;;;5083279;28;20429;-55
2022/08/06 12:04:36;;;;;;;3.60;0.80;;;21.90;77.90;;;;;;5074446;28;20036;-53
2022/08/06 12:07:22;;;;;;;2.20;0.50;;;21.80;78.10;;;;;;5072297;28;20040;-50
2022/08/06 12:10:06;;;;;;;9.97;1.00;;;21.70;78.40;;;;;;5085937;28;20456;-48
2022/08/06 12:12:43;;;;;;;1.90;0.60;;;21.60;78.60;;;;;;5087432;28;20119;-52
2022/08/06 12:15:22;;;;;;;1.50;0.60;;;21.60;78.60;;;;;;5070710;28;20045;-56
2022/08/06 12:17:54;;;;;;;2.92;0.50;;;21.50;79.60;;;;;;5072626;28;20037;-52
2022/08/06 12:20:41;;;;;;;2.30;0.50;;;21.40;79.90;;;;;;5090664;28;20497;-52
2022/08/06 12:23:10;;;;;;;1.77;0.40;;;21.40;80.70;;;;;;5090776;28;20051;-55
2022/08/06 12:25:40;;;;;;;4.95;1.15;;;21.40;81.20;;;;;;5088927;28;20067;-54
2022/08/06 12:28:08;;;;;;;3.35;0.50;;;21.40;81.70;;;;;;5089245;28;20032;-53
2022/08/06 12:30:47;;;;;;;1.38;0.30;;;21.40;80.60;;;;;;5072749;28;20045;-53
2022/08/06 12:33:14;;;;;;;1.23;0.30;;;21.50;80.70;;;;;;5070441;28;20410;-52
2022/08/06 12:35:56;;;;;;;0.68;0.30;;;21.70;81.30;;;;;;5071906;28;20041;-55
2022/08/06 12:38:24;;;;;;;2.63;0.35;;;22.00;81.70;;;;;;5071389;28;20044;-52
2022/08/06 12:40:54;;;;;;;1.35;0.50;;;22.30;79.60;;;;;;5084398;28;20040;-52
2022/08/06 12:43:19;;;;;;;1.60;0.50;;;22.40;79.30;;;;;;5090189;28;20485;-54
2022/08/06 12:45:45;;;;;;;;;;;22.40;78.70;;;;;;5089173;28;20043;-53
2022/08/06 12:48:11;;;;;;;3.03;0.60;;;22.40;78.50;;;;;;5090588;28;20331;-52
2022/08/06 12:50:43;;;;;;;1.48;0.40;;;22.40;78.70;;;;;;5080836;28;20045;-52
2022/08/06 12:53:10;;;;;;;0.70;0.40;;;22.40;77.70;;;;;;5070035;28;20131;-54
2022/08/06 12:55:44;;;;;;;1.98;0.47;;;22.40;78.60;;;;;;5071977;28;20436;-56
2022/08/06 12:58:13;;;;;;;2.20;0.50;;;22.40;78.60;;;;;;5090707;28;20044;-55
2022/08/06 13:00:41;;;;;;;0.63;0.30;;;22.40;78.10;;;;;;5087138;28;20119;-53
2022/08/06 13:03:09;;;;;;;4.65;0.50;;;22.40;78.70;;;;;;5071453;28;20094;-51
2022/08/06 13:05:37;;;;;;;1.75;0.40;;;22.50;78.20;;;;;;5070161;28;20605;-52
2022/08/06 13:08:03;;;;;;;4.38;1.05;;;22.60;78.20;;;;;;5089189;28;20063;-50
2022/08/06 13:10:29;;;;;;;4.05;0.98;;;22.70;78.60;;;;;;5088479;28;20509;-52